createdAt,value
2023-05-11T00:00:44.805Z,15.27
2023-05-11T00:03:06.656Z,15.29
2023-05-11T00:05:28.391Z,15.27
2023-05-11T00:07:49.848Z,15.16
2023-05-11T00:10:11.473Z,15.15
2023-05-11T00:12:32.925Z,15.17
2023-05-11T00:14:54.410Z,15.20
2023-05-11T00:17:15.855Z,15.14
2023-05-11T00:19:37.674Z,15.10
2023-05-11T00:21:59.491Z,14.94
2023-05-11T00:24:20.921Z,14.95
2023-05-11T00:26:42.412Z,14.98
2023-05-11T00:29:03.875Z,15.02
2023-05-11T00:31:26.974Z,15.00
2023-05-11T00:33:50.537Z,14.98
2023-05-11T00:36:12.038Z,14.96
2023-05-11T00:38:34.407Z,14.95
2023-05-11T00:40:56.884Z,15.00
2023-05-11T00:43:18.326Z,14.99
2023-05-11T00:45:40.576Z,15.00
2023-05-11T00:48:02.118Z,15.00
2023-05-11T00:50:24.511Z,14.96
2023-05-11T00:52:46.362Z,14.83
2023-05-11T00:55:08.409Z,14.84
2023-05-11T00:57:33.241Z,14.87
2023-05-11T00:59:54.899Z,14.84
2023-05-11T01:02:17.035Z,14.87
2023-05-11T01:04:38.999Z,14.94
2023-05-11T01:07:23.951Z,14.93
2023-05-11T01:09:55.860Z,14.87
2023-05-11T01:12:56.884Z,14.79
2023-05-11T01:15:27.761Z,14.81
2023-05-11T01:18:14.402Z,14.81
2023-05-11T01:20:35.958Z,14.76
2023-05-11T01:23:38.445Z,14.70
2023-05-11T01:26:11.537Z,14.73
2023-05-11T01:28:32.926Z,14.53
2023-05-11T01:31:15.379Z,14.42
2023-05-11T01:33:40.887Z,14.52
2023-05-11T01:36:06.432Z,14.56
2023-05-11T01:38:32.809Z,14.61
2023-05-11T01:40:57.775Z,14.65
2023-05-11T01:43:23.620Z,14.69
2023-05-11T01:45:50.551Z,14.71
2023-05-11T01:48:18.966Z,14.75
2023-05-11T01:50:42.118Z,14.77
2023-05-11T01:53:04.756Z,14.79
2023-05-11T01:55:27.132Z,14.77
2023-05-11T01:57:52.641Z,14.80
2023-05-11T02:00:16.728Z,14.83
2023-05-11T02:02:38.661Z,14.78
2023-05-11T02:05:01.827Z,14.74
2023-05-11T02:07:24.600Z,14.74
2023-05-11T02:09:47.325Z,14.74
2023-05-11T02:12:10.280Z,14.78
2023-05-11T02:14:34.622Z,14.78
2023-05-11T02:16:57.300Z,14.77
2023-05-11T02:19:21.110Z,14.75
2023-05-11T02:21:44.598Z,14.68
2023-05-11T02:24:07.696Z,14.71
2023-05-11T02:26:29.291Z,14.70
2023-05-11T02:28:50.991Z,14.72
2023-05-11T02:31:18.917Z,14.75
2023-05-11T02:33:45.673Z,14.75
2023-05-11T02:36:08.241Z,14.76
2023-05-11T02:38:33.209Z,14.75
2023-05-11T02:41:00.588Z,14.66
2023-05-11T02:43:25.543Z,14.66
2023-05-11T02:45:50.348Z,14.68
2023-05-11T02:48:21.476Z,14.63
2023-05-11T02:50:43.968Z,14.48
2023-05-11T02:53:16.867Z,14.49
2023-05-11T02:55:38.739Z,14.46
2023-05-11T02:58:00.508Z,14.46
2023-05-11T03:00:22.266Z,14.48
2023-05-11T03:02:44.014Z,14.50
2023-05-11T03:05:06.047Z,14.51
2023-05-11T03:07:27.942Z,14.49
2023-05-11T03:09:50.864Z,14.28
2023-05-11T03:12:14.794Z,14.15
2023-05-11T03:14:36.892Z,14.24
2023-05-11T03:16:59.245Z,14.30
2023-05-11T03:19:21.364Z,14.32
2023-05-11T03:21:43.166Z,14.34
2023-05-11T03:24:07.172Z,14.37
2023-05-11T03:26:30.346Z,14.41
2023-05-11T03:28:53.597Z,14.39
2023-05-11T03:31:15.153Z,14.35
2023-05-11T03:33:36.655Z,14.32
2023-05-11T03:35:58.954Z,14.33
2023-05-11T03:38:23.319Z,14.30
2023-05-11T03:40:46.202Z,14.18
2023-05-11T03:43:10.960Z,14.21
2023-05-11T03:45:33.410Z,14.13
2023-05-11T03:47:56.769Z,14.16
2023-05-11T03:50:20.402Z,14.20
2023-05-11T03:52:42.350Z,14.18
2023-05-11T03:55:04.772Z,14.15
2023-05-11T03:57:26.743Z,14.09
2023-05-11T03:59:48.230Z,14.14
2023-05-11T04:02:09.686Z,14.23
2023-05-11T04:04:31.921Z,14.29
2023-05-11T04:06:53.440Z,14.22
2023-05-11T04:09:14.904Z,14.27
2023-05-11T04:11:38.023Z,14.32
2023-05-11T04:13:59.481Z,14.32
2023-05-11T04:16:20.960Z,14.35
2023-05-11T04:18:42.498Z,14.17
2023-05-11T04:21:04.166Z,14.26
2023-05-11T04:23:25.740Z,14.25
2023-05-11T04:25:47.298Z,14.27
2023-05-11T04:28:08.794Z,14.21
2023-05-11T04:30:30.239Z,14.30
2023-05-11T04:32:51.749Z,14.32
2023-05-11T04:35:13.199Z,14.37
2023-05-11T04:37:34.701Z,14.40
2023-05-11T04:39:57.078Z,14.35
2023-05-11T04:42:18.577Z,14.41
2023-05-11T04:44:40.030Z,14.46
2023-05-11T04:47:01.606Z,14.52
2023-05-11T04:49:23.504Z,14.58
2023-05-11T04:51:44.954Z,14.47
2023-05-11T04:54:06.616Z,14.36
2023-05-11T04:56:28.073Z,14.48
2023-05-11T04:58:49.539Z,14.46
2023-05-11T05:01:11.086Z,14.63
2023-05-11T05:03:32.627Z,14.76
2023-05-11T05:05:54.091Z,14.81
2023-05-11T05:08:15.604Z,14.91
2023-05-11T05:10:37.067Z,14.82
2023-05-11T05:12:58.597Z,14.82
2023-05-11T05:15:20.129Z,14.91
2023-05-11T05:17:41.746Z,14.86
2023-05-11T05:20:04.528Z,15.03
2023-05-11T05:22:26.436Z,15.02
2023-05-11T05:24:47.862Z,15.17
2023-05-11T05:27:09.294Z,15.19
2023-05-11T05:29:30.702Z,15.26
2023-05-11T05:31:52.142Z,15.34
2023-05-11T05:34:16.179Z,15.34
2023-05-11T05:36:39.194Z,15.39
2023-05-11T05:39:00.745Z,15.53
2023-05-11T05:41:23.150Z,15.76
2023-05-11T05:43:44.600Z,15.89
2023-05-11T05:46:06.321Z,15.97
2023-05-11T05:48:27.810Z,16.16
2023-05-11T05:50:49.348Z,16.24
2023-05-11T05:53:11.202Z,16.34
2023-05-11T05:55:32.649Z,16.24
2023-05-11T05:57:54.182Z,16.33
2023-05-11T06:00:16.208Z,16.42
2023-05-11T06:02:37.923Z,16.51
2023-05-11T06:04:59.642Z,16.63
2023-05-11T06:07:21.186Z,16.62
2023-05-11T06:09:42.679Z,16.76
2023-05-11T06:12:05.097Z,16.90
2023-05-11T06:14:26.526Z,17.07
2023-05-11T06:16:48.563Z,17.30
2023-05-11T06:19:10.210Z,17.37
2023-05-11T06:21:31.764Z,17.51
2023-05-11T06:23:53.290Z,17.69
2023-05-11T06:26:14.763Z,17.71
2023-05-11T06:28:36.237Z,17.91
2023-05-11T06:30:59.196Z,18.19
2023-05-11T06:33:20.646Z,18.31
2023-05-11T06:35:42.142Z,18.29
2023-05-11T06:38:03.736Z,18.33
2023-05-11T06:40:25.864Z,18.42
2023-05-11T06:42:47.320Z,18.38
2023-05-11T06:45:09.360Z,18.50
2023-05-11T06:47:30.924Z,18.44
2023-05-11T06:49:52.530Z,18.50
2023-05-11T06:52:13.994Z,18.52
2023-05-11T06:54:35.588Z,18.70
2023-05-11T06:56:57.032Z,18.71
2023-05-11T06:59:18.442Z,18.96
2023-05-11T07:01:39.924Z,19.09
2023-05-11T07:04:01.418Z,19.08
2023-05-11T07:06:22.884Z,19.16
2023-05-11T07:08:44.335Z,19.58
2023-05-11T07:11:06.815Z,19.53
2023-05-11T07:13:28.291Z,19.66
2023-05-11T07:15:50.244Z,19.75
2023-05-11T07:18:11.791Z,19.78
2023-05-11T07:20:33.319Z,19.99
2023-05-11T07:22:59.266Z,19.97
2023-05-11T07:25:20.857Z,19.78
2023-05-11T07:27:42.834Z,19.78
2023-05-11T07:30:04.944Z,19.73
2023-05-11T07:32:26.435Z,19.72
2023-05-11T07:34:48.598Z,20.02
2023-05-11T07:37:10.264Z,20.02
2023-05-11T07:39:31.723Z,20.01
2023-05-11T07:41:53.205Z,19.98
2023-05-11T07:44:14.726Z,19.80
2023-05-11T07:46:36.232Z,19.88
2023-05-11T07:49:13.693Z,19.65
2023-05-11T07:51:37.357Z,19.68
2023-05-11T07:53:58.796Z,19.74
2023-05-11T07:56:20.313Z,19.77
2023-05-11T07:58:41.833Z,19.55
2023-05-11T08:01:03.433Z,19.46
2023-05-11T08:03:24.949Z,19.38
2023-05-11T08:05:46.486Z,19.33
2023-05-11T08:08:08.093Z,19.26
2023-05-11T08:10:29.617Z,19.19
2023-05-11T08:12:51.138Z,19.15
2023-05-11T08:15:12.560Z,18.88
2023-05-11T08:17:34.327Z,19.19
2023-05-11T08:19:56.534Z,19.06
2023-05-11T08:22:17.990Z,19.06
2023-05-11T08:24:39.632Z,19.12
2023-05-11T08:27:01.400Z,19.15
2023-05-11T08:29:22.862Z,19.17
2023-05-11T08:31:44.382Z,19.37
2023-05-11T08:34:17.789Z,19.63
2023-05-11T08:36:40.960Z,19.80
2023-05-11T08:39:02.552Z,19.95
2023-05-11T08:41:24.056Z,19.88
2023-05-11T08:43:47.055Z,20.03
2023-05-11T08:46:11.190Z,20.05
2023-05-11T08:48:32.882Z,19.99
2023-05-11T08:50:54.381Z,19.70
2023-05-11T08:53:15.883Z,19.73
2023-05-11T08:55:38.979Z,19.76
2023-05-11T08:58:03.523Z,19.92
2023-05-11T09:00:25.722Z,20.03
2023-05-11T09:02:48.128Z,20.02
2023-05-11T09:05:10.241Z,19.77
2023-05-11T09:07:36.406Z,19.96
2023-05-11T09:09:58.004Z,19.92
2023-05-11T09:12:20.265Z,19.93
2023-05-11T09:14:41.876Z,19.93
2023-05-11T09:17:04.372Z,20.09
2023-05-11T09:19:26.020Z,20.24
2023-05-11T09:21:47.739Z,20.12
2023-05-11T09:24:13.033Z,20.26
2023-05-11T09:26:36.100Z,20.00
2023-05-11T09:31:45.890Z,20.28
2023-05-11T09:34:21.189Z,20.57
2023-05-11T09:36:44.291Z,20.58
2023-05-11T09:39:05.832Z,20.57
2023-05-11T09:41:34.838Z,20.87
2023-05-11T09:44:11.708Z,21.15
2023-05-11T09:46:33.333Z,21.09
2023-05-11T09:49:01.273Z,21.60
2023-05-11T09:51:31.019Z,21.89
2023-05-11T09:53:52.442Z,22.13
2023-05-11T09:56:15.502Z,22.11
2023-05-11T09:58:54.987Z,22.02
2023-05-11T10:01:18.448Z,22.17
2023-05-11T10:04:02.600Z,22.14
2023-05-11T10:06:47.922Z,22.06
2023-05-11T10:09:10.348Z,22.08
2023-05-11T10:11:31.846Z,21.93
2023-05-11T10:13:53.736Z,21.92
2023-05-11T10:16:16.980Z,21.96
2023-05-11T10:18:40.468Z,21.88
2023-05-11T10:21:02.108Z,21.90
2023-05-11T10:23:23.938Z,21.71
2023-05-11T10:25:45.651Z,21.62
2023-05-11T10:28:07.570Z,21.76
2023-05-11T10:30:30.087Z,21.72
2023-05-11T10:32:52.370Z,22.08
2023-05-11T10:35:14.092Z,22.27
2023-05-11T10:37:35.744Z,22.07
2023-05-11T10:39:57.740Z,21.96
2023-05-11T10:42:33.542Z,22.44
2023-05-11T10:45:13.424Z,22.69
2023-05-11T10:48:26.405Z,22.54
2023-05-11T10:50:57.026Z,22.40
2023-05-11T10:53:44.651Z,22.31
2023-05-11T10:56:26.152Z,21.95
2023-05-11T10:59:10.897Z,22.00
2023-05-11T11:01:42.099Z,21.88
2023-05-11T11:04:06.204Z,22.00
2023-05-11T11:06:29.232Z,21.94
2023-05-11T11:09:13.038Z,21.54
2023-05-11T11:11:45.899Z,20.84
2023-05-11T11:14:09.557Z,20.16
2023-05-11T11:16:31.895Z,19.87
2023-05-11T11:19:28.640Z,19.53
2023-05-11T11:21:50.106Z,19.43
2023-05-11T11:24:37.348Z,19.11
2023-05-11T11:26:58.876Z,18.91
2023-05-11T11:29:20.382Z,18.68
2023-05-11T11:31:42.324Z,18.58
2023-05-11T11:34:28.715Z,18.47
2023-05-11T11:36:58.428Z,18.40
2023-05-11T11:39:20.065Z,18.52
2023-05-11T11:41:41.650Z,18.68
2023-05-11T11:44:04.236Z,18.79
2023-05-11T11:46:30.830Z,18.75
2023-05-11T11:48:54.854Z,18.55
2023-05-11T11:51:16.485Z,18.41
2023-05-11T11:53:38.222Z,18.40
2023-05-11T11:56:00.140Z,18.33
2023-05-11T11:58:48.440Z,18.24
2023-05-11T12:01:35.626Z,18.14
2023-05-11T12:04:32.031Z,18.35
2023-05-11T12:06:58.119Z,18.54
2023-05-11T12:09:19.557Z,18.60
2023-05-11T12:11:47.765Z,18.96
2023-05-11T12:14:10.183Z,18.91
2023-05-11T12:16:32.364Z,19.00
2023-05-11T12:19:01.529Z,19.15
2023-05-11T12:21:27.520Z,19.51
2023-05-11T12:23:54.833Z,19.68
2023-05-11T12:26:20.338Z,19.81
2023-05-11T12:28:41.789Z,20.48
2023-05-11T12:31:03.261Z,20.85
2023-05-11T12:33:24.944Z,20.82
2023-05-11T12:35:52.980Z,20.87
2023-05-11T12:38:14.967Z,20.54
2023-05-11T12:40:37.020Z,20.27
2023-05-11T12:42:59.832Z,20.07
2023-05-11T12:45:23.490Z,20.20
2023-05-11T12:47:45.662Z,20.22
2023-05-11T12:50:08.018Z,20.18
2023-05-11T12:52:29.526Z,19.96
2023-05-11T12:54:51.769Z,19.69
2023-05-11T12:57:27.714Z,19.54
2023-05-11T12:59:49.249Z,19.20
2023-05-11T13:02:12.095Z,18.93
2023-05-11T13:04:33.917Z,18.90
2023-05-11T13:06:55.471Z,18.82
2023-05-11T13:09:27.151Z,18.54
2023-05-11T13:11:48.587Z,18.54
2023-05-11T13:14:17.329Z,18.47
2023-05-11T13:16:38.819Z,18.51
2023-05-11T13:19:02.447Z,18.42
2023-05-11T13:21:23.966Z,18.47
2023-05-11T13:23:49.579Z,18.57
2023-05-11T13:26:11.230Z,18.84
2023-05-11T13:28:34.073Z,18.99
2023-05-11T13:31:01.382Z,19.09
2023-05-11T13:33:23.041Z,19.17
2023-05-11T13:35:45.309Z,19.38
2023-05-11T13:38:06.895Z,19.20
2023-05-11T13:40:28.441Z,19.14
2023-05-11T13:42:49.889Z,19.19
2023-05-11T13:45:12.168Z,19.17
2023-05-11T13:47:34.415Z,19.29
2023-05-11T13:49:55.916Z,19.19
2023-05-11T13:52:17.426Z,19.35
2023-05-11T13:54:38.882Z,19.70
2023-05-11T13:57:00.745Z,19.80
2023-05-11T13:59:22.395Z,19.92
2023-05-11T14:01:43.928Z,19.88
2023-05-11T14:04:06.180Z,19.97
2023-05-11T14:06:27.781Z,20.03
2023-05-11T14:08:49.823Z,20.38
2023-05-11T14:11:11.254Z,20.61
2023-05-11T14:13:32.701Z,20.80
2023-05-11T14:15:54.352Z,20.92
2023-05-11T14:18:15.975Z,20.90
2023-05-11T14:20:37.577Z,20.74
2023-05-11T14:22:59.009Z,20.92
2023-05-11T14:25:20.628Z,20.77
2023-05-11T14:27:42.299Z,20.90
2023-05-11T14:30:04.119Z,20.73
2023-05-11T14:32:25.779Z,20.65
2023-05-11T14:34:47.852Z,20.84
2023-05-11T14:37:09.600Z,20.95
2023-05-11T14:39:31.087Z,20.88
2023-05-11T14:41:52.556Z,20.83
2023-05-11T14:44:14.031Z,20.93
2023-05-11T14:46:35.661Z,21.19
2023-05-11T14:48:57.086Z,21.25
2023-05-11T14:51:18.596Z,20.97
2023-05-11T14:53:40.343Z,20.85
2023-05-11T14:56:01.904Z,20.75
2023-05-11T14:58:23.387Z,20.71
2023-05-11T15:00:44.847Z,20.43
2023-05-11T15:03:10.821Z,20.25
2023-05-11T15:05:32.432Z,19.94
2023-05-11T15:07:54.159Z,19.83
2023-05-11T15:10:15.925Z,19.64
2023-05-11T15:12:37.426Z,19.32
2023-05-11T15:14:58.868Z,19.16
2023-05-11T15:17:20.647Z,19.08
2023-05-11T15:19:42.310Z,18.89
2023-05-11T15:22:03.770Z,18.84
2023-05-11T15:24:25.259Z,18.94
2023-05-11T15:26:46.682Z,19.18
2023-05-11T15:29:08.191Z,19.14
2023-05-11T15:31:29.641Z,19.33
2023-05-11T15:33:51.336Z,19.49
2023-05-11T15:36:14.151Z,19.52
2023-05-11T15:38:35.631Z,19.65
2023-05-11T15:40:57.121Z,19.72
2023-05-11T15:43:18.695Z,19.71
2023-05-11T15:45:40.130Z,19.64
2023-05-11T15:48:01.690Z,19.55
2023-05-11T15:50:23.303Z,19.43
2023-05-11T15:52:44.776Z,19.48
2023-05-11T15:55:07.400Z,19.20
2023-05-11T15:57:28.850Z,19.25
2023-05-11T15:59:50.326Z,19.06
2023-05-11T16:02:12.289Z,18.90
2023-05-11T16:04:33.855Z,18.88
2023-05-11T16:06:56.808Z,18.81
2023-05-11T16:09:20.266Z,18.59
2023-05-11T16:11:43.484Z,18.53
2023-05-11T16:14:04.956Z,18.67
2023-05-11T16:16:27.016Z,18.65
2023-05-11T16:18:48.547Z,18.56
2023-05-11T16:21:10.034Z,18.50
2023-05-11T16:23:31.702Z,18.53
2023-05-11T16:25:53.305Z,18.70
2023-05-11T16:28:14.775Z,18.52
2023-05-11T16:30:36.290Z,18.49
2023-05-11T16:32:57.958Z,18.58
2023-05-11T16:35:19.590Z,18.56
2023-05-11T16:37:41.067Z,18.74
2023-05-11T16:40:02.738Z,18.73
2023-05-11T16:42:25.445Z,18.90
2023-05-11T16:44:47.094Z,18.84
2023-05-11T16:47:08.521Z,18.69
2023-05-11T16:49:29.979Z,18.47
2023-05-11T16:51:52.736Z,18.32
2023-05-11T16:54:15.002Z,18.35
2023-05-11T16:56:36.843Z,18.46
2023-05-11T16:58:58.300Z,18.63
2023-05-11T17:01:20.529Z,18.71
2023-05-11T17:03:42.143Z,18.77
2023-05-11T17:06:03.807Z,18.69
2023-05-11T17:08:25.313Z,18.83
2023-05-11T17:10:46.786Z,18.86
2023-05-11T17:13:08.282Z,18.90
2023-05-11T17:15:29.755Z,18.88
2023-05-11T17:17:53.189Z,18.89
2023-05-11T17:20:15.732Z,19.01
2023-05-11T17:22:38.345Z,18.96
2023-05-11T17:24:59.847Z,18.85
2023-05-11T17:27:21.337Z,18.84
2023-05-11T17:29:43.609Z,18.65
2023-05-11T17:32:05.420Z,18.73
2023-05-11T17:34:28.835Z,18.74
2023-05-11T17:36:50.578Z,18.59
2023-05-11T17:39:12.549Z,18.64
2023-05-11T17:41:33.990Z,18.64
2023-05-11T17:43:55.547Z,18.48
2023-05-11T17:46:17.236Z,18.27
2023-05-11T17:48:38.705Z,18.24
2023-05-11T17:51:00.372Z,18.22
2023-05-11T17:53:21.816Z,18.28
2023-05-11T17:55:43.359Z,18.30
2023-05-11T17:58:04.833Z,18.05
2023-05-11T18:00:27.877Z,17.83
2023-05-11T18:02:49.630Z,17.95
2023-05-11T18:05:11.189Z,17.99
2023-05-11T18:07:33.295Z,17.93
2023-05-11T18:09:54.785Z,17.66
2023-05-11T18:12:16.224Z,17.35
2023-05-11T18:14:37.713Z,17.42
2023-05-11T18:16:59.147Z,17.51
2023-05-11T18:19:20.629Z,17.61
2023-05-11T18:21:42.436Z,17.69
2023-05-11T18:24:04.812Z,17.70
2023-05-11T18:26:26.421Z,17.71
2023-05-11T18:28:48.543Z,17.72
2023-05-11T18:31:10.049Z,17.70
2023-05-11T18:33:31.513Z,17.67
2023-05-11T18:35:53.048Z,17.49
2023-05-11T18:38:14.574Z,17.50
2023-05-11T18:40:36.045Z,17.51
2023-05-11T18:42:57.592Z,17.43
2023-05-11T18:45:19.050Z,17.42
2023-05-11T18:47:46.288Z,17.38
2023-05-11T18:50:08.245Z,17.42
2023-05-11T18:52:30.264Z,17.31
2023-05-11T18:54:51.879Z,17.21
2023-05-11T18:57:16.500Z,17.14
2023-05-11T18:59:38.411Z,17.22
2023-05-11T19:02:00.038Z,17.15
2023-05-11T19:04:22.016Z,17.10
2023-05-11T19:06:43.564Z,16.88
2023-05-11T19:09:05.170Z,16.88
2023-05-11T19:11:27.166Z,16.87
2023-05-11T19:13:50.437Z,16.82
2023-05-11T19:16:12.119Z,16.77
2023-05-11T19:18:35.649Z,16.78
2023-05-11T19:20:57.346Z,16.71
2023-05-11T19:23:18.788Z,16.73
2023-05-11T19:25:40.454Z,16.71
2023-05-11T19:28:01.975Z,16.64
2023-05-11T19:30:24.754Z,16.63
2023-05-11T19:32:46.251Z,16.64
2023-05-11T19:35:08.884Z,16.60
2023-05-11T19:37:30.348Z,16.57
2023-05-11T19:39:51.836Z,16.57
2023-05-11T19:42:13.258Z,16.42
2023-05-11T19:44:37.757Z,16.37
2023-05-11T19:46:59.394Z,16.35
2023-05-11T19:49:21.074Z,16.17
2023-05-11T19:51:42.926Z,16.18
2023-05-11T19:54:04.455Z,16.20
2023-05-11T19:56:26.085Z,16.11
2023-05-11T19:58:47.629Z,16.07
2023-05-11T20:01:09.192Z,16.04
2023-05-11T20:03:31.462Z,16.04
2023-05-11T20:05:53.057Z,16.04
2023-05-11T20:08:14.672Z,15.99
2023-05-11T20:10:36.138Z,15.97
2023-05-11T20:12:59.465Z,16.00
2023-05-11T20:15:21.105Z,16.03
2023-05-11T20:17:42.830Z,16.01
2023-05-11T20:20:04.581Z,15.92
2023-05-11T20:22:26.449Z,15.99
2023-05-11T20:24:47.993Z,15.74
2023-05-11T20:27:11.029Z,15.62
2023-05-11T20:29:32.750Z,15.67
2023-05-11T20:31:54.256Z,15.47
2023-05-11T20:34:16.014Z,15.56
2023-05-11T20:36:37.555Z,15.61
2023-05-11T20:38:59.050Z,15.67
2023-05-11T20:41:22.115Z,15.70
2023-05-11T20:43:43.562Z,15.66
2023-05-11T20:46:05.566Z,15.78
2023-05-11T20:48:39.159Z,15.64
2023-05-11T20:51:02.324Z,15.52
2023-05-11T20:53:23.823Z,15.54
2023-05-11T20:55:45.616Z,15.49
2023-05-11T20:58:07.070Z,15.50
2023-05-11T21:00:28.535Z,15.56
2023-05-11T21:02:50.189Z,15.41
2023-05-11T21:05:11.912Z,15.34
2023-05-11T21:07:33.421Z,15.09
2023-05-11T21:09:54.979Z,15.12
2023-05-11T21:12:16.492Z,14.95
2023-05-11T21:14:38.490Z,14.95
2023-05-11T21:16:59.957Z,14.95
2023-05-11T21:19:21.485Z,14.74
2023-05-11T21:21:43.172Z,14.69
2023-05-11T21:24:06.157Z,14.56
2023-05-11T21:26:27.634Z,14.41
2023-05-11T21:28:49.062Z,14.43
2023-05-11T21:31:10.527Z,14.52
2023-05-11T21:33:32.221Z,14.39
2023-05-11T21:35:53.908Z,14.32
2023-05-11T21:38:16.974Z,14.48
2023-05-11T21:40:38.417Z,14.41
2023-05-11T21:42:59.888Z,14.42
2023-05-11T21:45:21.458Z,14.61
2023-05-11T21:47:42.978Z,14.46
2023-05-11T21:50:05.965Z,14.50
2023-05-11T21:52:27.439Z,14.48
2023-05-11T21:54:48.900Z,14.47
2023-05-11T21:57:10.473Z,14.51
2023-05-11T21:59:31.930Z,14.56
2023-05-11T22:01:54.813Z,14.58
2023-05-11T22:04:16.306Z,14.55
2023-05-11T22:06:37.979Z,14.53
2023-05-11T22:08:59.437Z,14.49
2023-05-11T22:11:21.698Z,14.43
2023-05-11T22:13:44.585Z,14.54
2023-05-11T22:16:06.474Z,14.56
2023-05-11T22:18:28.015Z,14.62
2023-05-11T22:20:49.516Z,14.67
2023-05-11T22:23:10.955Z,14.67
2023-05-11T22:25:32.427Z,14.77
2023-05-11T22:27:53.911Z,14.74
2023-05-11T22:30:15.377Z,14.77
2023-05-11T22:32:36.833Z,14.67
2023-05-11T22:34:59.535Z,14.64
2023-05-11T22:37:21.023Z,14.84
2023-05-11T22:39:42.514Z,14.62
2023-05-11T22:42:04.223Z,14.58
2023-05-11T22:44:27.171Z,14.46
2023-05-11T22:46:49.690Z,14.56
2023-05-11T22:49:11.261Z,14.56
2023-05-11T22:51:32.826Z,14.40
2023-05-11T22:53:54.981Z,14.61
2023-05-11T22:56:17.007Z,14.54
2023-05-11T22:58:38.795Z,14.57
2023-05-11T23:01:00.658Z,14.43
2023-05-11T23:03:22.480Z,14.47
2023-05-11T23:05:43.998Z,14.34
2023-05-11T23:08:05.441Z,14.22
2023-05-11T23:10:28.613Z,14.15
2023-05-11T23:12:50.085Z,14.17
2023-05-11T23:15:11.569Z,14.12
2023-05-11T23:17:33.134Z,14.21
2023-05-11T23:19:54.787Z,14.10
2023-05-11T23:22:16.225Z,14.23
2023-05-11T23:24:37.684Z,14.19
2023-05-11T23:26:59.290Z,14.25
2023-05-11T23:29:20.901Z,14.20
2023-05-11T23:31:42.675Z,14.28
2023-05-11T23:34:04.514Z,14.32
2023-05-11T23:36:26.647Z,14.22
2023-05-11T23:38:48.093Z,14.19
2023-05-11T23:41:09.589Z,14.15
2023-05-11T23:43:31.444Z,14.30
2023-05-11T23:45:52.899Z,14.20
2023-05-11T23:48:14.381Z,14.10
2023-05-11T23:50:35.869Z,14.13
2023-05-11T23:52:57.273Z,13.91
2023-05-11T23:55:18.776Z,13.94
2023-05-11T23:57:41.276Z,13.98
